Time;durP1;ratioP1;P1;durP2;ratioP2;P2;SDS_P1;SDS_P2;PMS_P1;PMS_P2;Temp;Humidity;BMP_temperature;BMP_pressure;BME280_temperature;BME280_humidity;BME280_pressure;Samples;Min_cycle;Max_cycle;Signal;HPM_P1;HPM_P2
2022/09/05 00:01:40;;;;;;;3.70;2.42;;;20.40;96.00;;;;;;5013708;28;20140;-72
2022/09/05 00:04:21;;;;;;;5.80;2.85;;;20.40;96.00;;;;;;5031259;28;20500;-72
2022/09/05 00:07:03;;;;;;;3.63;2.50;;;20.40;96.00;;;;;;5031595;28;20056;-73
2022/09/05 00:10:00;;;;;;;3.75;2.38;;;20.40;96.00;;;;;;5031181;28;20473;-73
2022/09/05 00:12:29;;;;;;;5.47;2.55;;;20.30;96.00;;;;;;5031353;28;20155;-73
2022/09/05 00:15:13;;;;;;;4.75;2.90;;;20.30;96.00;;;;;;5013965;28;20104;-72
2022/09/05 00:18:02;;;;;;;2.63;2.30;;;20.30;96.10;;;;;;5031224;28;20128;-73
2022/09/05 00:20:55;;;;;;;4.38;2.45;;;20.30;96.10;;;;;;5020472;28;20042;-73
2022/09/05 00:23:30;;;;;;;5.03;2.38;;;20.30;96.20;;;;;;5031230;28;20021;-73
2022/09/05 00:26:24;;;;;;;3.53;2.50;;;20.20;96.20;;;;;;5031061;28;20037;-72
2022/09/05 00:29:20;;;;;;;4.18;2.60;;;20.30;96.20;;;;;;5013315;28;20021;-72
2022/09/05 00:31:46;;;;;;;5.00;2.70;;;20.30;96.20;;;;;;5031009;28;20060;-72
2022/09/05 00:34:36;;;;;;;4.82;2.58;;;20.30;96.20;;;;;;5030932;28;20034;-72
2022/09/05 00:37:03;;;;;;;4.88;3.08;;;20.30;96.20;;;;;;5031301;28;20367;-72
2022/09/05 00:39:35;;;;;;;3.55;2.50;;;20.30;96.30;;;;;;5013560;28;20025;-73
2022/09/05 00:42:13;;;;;;;4.75;2.50;;;20.40;96.30;;;;;;5031167;28;20029;-72
2022/09/05 00:45:00;;;;;;;5.00;2.90;;;20.30;96.40;;;;;;4996994;28;20034;-72
2022/09/05 00:47:40;;;;;;;4.32;2.63;;;20.40;96.40;;;;;;5030886;28;20040;-72
2022/09/05 00:50:14;;;;;;;6.85;2.95;;;20.30;96.50;;;;;;5030869;28;20029;-73
2022/09/05 00:53:16;;;;;;;3.63;2.80;;;20.30;96.50;;;;;;5032216;28;20080;-72
2022/09/05 00:56:04;;;;;;;4.38;2.83;;;20.30;96.60;;;;;;5034637;28;20022;-72
2022/09/05 00:58:40;;;;;;;5.23;2.83;;;20.30;96.70;;;;;;5034742;28;20030;-73
2022/09/05 01:01:36;;;;;;;4.30;2.90;;;20.20;96.80;;;;;;5034586;28;20022;-72
2022/09/05 01:04:31;;;;;;;4.82;2.70;;;20.20;97.00;;;;;;5034513;28;20080;-73
2022/09/05 01:07:36;;;;;;;5.22;2.72;;;20.10;97.10;;;;;;5034537;28;20030;-72
2022/09/05 01:10:41;;;;;;;4.97;2.58;;;20.10;97.20;;;;;;5034160;28;20091;-72
2022/09/05 01:13:34;;;;;;;4.18;2.70;;;20.10;97.20;;;;;;5016569;28;20037;-73
2022/09/05 01:16:19;;;;;;;4.43;2.80;;;20.00;97.30;;;;;;5034273;28;20108;-73
2022/09/05 01:19:04;;;;;;;4.82;3.03;;;20.00;97.50;;;;;;5016658;28;20026;-72
2022/09/05 01:21:49;;;;;;;5.53;2.90;;;19.90;98.00;;;;;;5016312;28;20043;-73
2022/09/05 01:24:56;;;;;;;4.78;2.92;;;19.90;98.40;;;;;;5034423;28;20053;-72
2022/09/05 01:27:37;;;;;;;6.17;3.23;;;19.80;98.70;;;;;;5006846;28;20045;-73
2022/09/05 01:30:17;;;;;;;5.82;3.30;;;19.80;99.00;;;;;;5033873;28;20040;-72
2022/09/05 01:32:50;;;;;;;5.97;3.15;;;19.70;98.90;;;;;;5034142;28;20471;-72
2022/09/05 01:36:00;;;;;;;4.10;2.90;;;19.70;98.80;;;;;;5034191;28;20021;-73
2022/09/05 01:38:36;;;;;;;5.55;3.17;;;19.80;98.70;;;;;;5003672;28;20045;-72
2022/09/05 01:41:04;;;;;;;3.95;2.63;;;19.70;98.70;;;;;;5033894;28;20090;-73
2022/09/05 01:43:40;;;;;;;;;;;19.70;98.60;;;;;;5034369;28;20037;-72
2022/09/05 01:46:26;;;;;;;4.78;3.33;;;19.70;98.60;;;;;;5033854;28;19909;-72
2022/09/05 01:49:01;;;;;;;3.95;3.05;;;19.70;98.70;;;;;;5033730;28;20025;-71
2022/09/05 01:51:39;;;;;;;4.18;2.90;;;19.60;98.70;;;;;;5033429;28;20029;-71
2022/09/05 01:54:10;;;;;;;3.60;2.50;;;19.60;98.70;;;;;;5016128;28;20036;-71
2022/09/05 01:56:58;;;;;;;4.25;2.83;;;19.60;98.70;;;;;;5033569;28;20025;-70
2022/09/05 01:59:39;;;;;;;3.40;2.55;;;19.50;98.70;;;;;;5033709;28;20053;-73
2022/09/05 02:02:17;;;;;;;4.78;2.72;;;19.50;98.80;;;;;;5033502;28;20031;-70
2022/09/05 02:05:01;;;;;;;5.38;2.80;;;19.50;98.80;;;;;;5033091;28;20068;-70
2022/09/05 02:07:36;;;;;;;4.88;3.38;;;19.50;98.90;;;;;;5033104;28;20037;-71
2022/09/05 02:10:29;;;;;;;6.35;2.78;;;19.40;98.90;;;;;;5032859;28;20026;-70
2022/09/05 02:13:10;;;;;;;4.20;2.55;;;19.40;98.90;;;;;;5033436;28;20034;-71
2022/09/05 02:15:44;;;;;;;4.13;2.80;;;19.50;98.80;;;;;;5033551;28;20043;-71
2022/09/05 02:18:22;;;;;;;4.07;2.58;;;19.50;98.80;;;;;;5015576;28;20035;-70
2022/09/05 02:20:56;;;;;;;4.78;2.72;;;19.50;98.80;;;;;;5046831;22;20130;-71
2022/09/05 02:23:31;;;;;;;4.13;2.70;;;19.50;98.80;;;;;;5015555;28;20119;-71
2022/09/05 02:26:22;;;;;;;4.47;3.00;;;19.50;98.80;;;;;;5032885;28;20030;-71
2022/09/05 02:29:25;;;;;;;4.00;2.72;;;19.50;98.80;;;;;;5032820;28;20469;-71
2022/09/05 02:32:07;;;;;;;4.75;2.80;;;19.50;98.80;;;;;;5032844;28;20037;-71
2022/09/05 02:35:00;;;;;;;4.50;3.03;;;19.50;98.80;;;;;;5033175;28;20036;-71
2022/09/05 02:37:56;;;;;;;4.35;2.72;;;19.50;98.80;;;;;;5014813;28;20120;-71
2022/09/05 02:40:37;;;;;;;4.28;3.30;;;19.40;98.90;;;;;;5032755;28;20025;-71
2022/09/05 02:43:41;;;;;;;4.82;2.78;;;19.40;98.90;;;;;;5033224;28;20376;-71
2022/09/05 02:46:37;;;;;;;4.05;2.83;;;19.30;98.90;;;;;;5032602;28;20040;-72
2022/09/05 02:49:08;;;;;;;3.30;2.70;;;19.40;98.80;;;;;;4962134;28;20464;-71
2022/09/05 02:51:44;;;;;;;4.30;2.55;;;19.40;98.90;;;;;;5032878;28;20029;-71
2022/09/05 02:54:32;;;;;;;4.18;2.72;;;19.40;98.90;;;;;;5032796;28;20437;-71
2022/09/05 02:57:26;;;;;;;5.82;3.25;;;19.40;98.90;;;;;;5014825;28;20029;-71
2022/09/05 03:00:10;;;;;;;5.85;3.17;;;19.30;98.90;;;;;;5032513;28;20548;-71
2022/09/05 03:02:36;;;;;;;5.15;2.88;;;19.30;98.90;;;;;;5032853;28;20029;-71
2022/09/05 03:05:11;;;;;;;6.93;3.13;;;19.30;99.00;;;;;;5032690;28;20037;-71
2022/09/05 03:08:24;;;;;;;6.13;3.30;;;19.30;99.00;;;;;;5032553;28;20111;-71
2022/09/05 03:11:29;;;;;;;4.68;3.03;;;19.30;99.00;;;;;;4951784;29;20452;-71
2022/09/05 03:14:17;;;;;;;5.25;2.90;;;19.30;98.90;;;;;;5015387;28;20460;-71
2022/09/05 03:17:20;;;;;;;7.03;3.03;;;19.30;99.00;;;;;;5014398;28;20033;-71
2022/09/05 03:20:06;;;;;;;4.15;2.97;;;19.30;99.00;;;;;;5032033;28;20033;-71
2022/09/05 03:22:55;;;;;;;7.32;3.05;;;19.20;99.00;;;;;;5032233;28;20036;-71
2022/09/05 03:25:39;;;;;;;4.07;2.90;;;19.20;99.10;;;;;;5032398;28;20429;-71
2022/09/05 03:28:55;;;;;;;4.68;3.08;;;19.20;99.10;;;;;;5032011;28;20037;-71
2022/09/05 03:31:39;;;;;;;4.78;3.05;;;19.20;99.10;;;;;;4987460;28;20041;-71
2022/09/05 03:34:14;;;;;;;4.60;2.70;;;19.10;99.20;;;;;;5031841;28;20494;-71
2022/09/05 03:37:15;;;;;;;8.13;3.30;;;19.00;99.30;;;;;;5013903;28;20029;-71
2022/09/05 03:39:59;;;;;;;7.97;3.45;;;19.10;99.30;;;;;;5031579;28;20018;-71
2022/09/05 03:42:27;;;;;;;4.68;2.75;;;19.00;99.30;;;;;;5032117;28;20436;-71
2022/09/05 03:45:28;;;;;;;8.43;3.42;;;19.00;99.30;;;;;;5032023;28;20475;-71
2022/09/05 03:48:28;;;;;;;7.60;3.92;;;19.00;99.40;;;;;;5017986;28;20041;-71
2022/09/05 03:51:12;;;;;;;6.00;3.45;;;19.00;99.40;;;;;;5014205;28;20033;-71
2022/09/05 03:54:27;;;;;;;5.57;3.40;;;19.00;99.50;;;;;;5013936;28;20025;-71
2022/09/05 03:56:59;;;;;;;5.13;3.28;;;18.90;99.40;;;;;;5025395;28;20057;-72
2022/09/05 03:59:28;;;;;;;5.40;3.35;;;19.00;99.50;;;;;;5031676;28;20029;-71
2022/09/05 04:02:03;;;;;;;4.75;3.00;;;19.00;99.60;;;;;;5031377;28;20029;-71
2022/09/05 04:04:35;;;;;;;4.38;3.10;;;18.90;99.50;;;;;;5014175;28;20038;-72
2022/09/05 04:07:29;;;;;;;5.20;2.95;;;18.90;99.50;;;;;;5031377;28;20517;-71
2022/09/05 04:10:03;;;;;;;5.05;3.20;;;18.90;99.60;;;;;;5031246;28;20525;-71
2022/09/05 04:13:00;;;;;;;6.72;3.25;;;18.90;99.50;;;;;;5013886;28;20030;-71
2022/09/05 04:15:32;;;;;;;4.90;2.97;;;18.90;99.40;;;;;;5031501;28;20060;-71
2022/09/05 04:18:11;;;;;;;6.70;3.10;;;18.90;99.50;;;;;;5014084;28;20037;-71
2022/09/05 04:21:09;;;;;;;4.97;3.30;;;18.90;99.60;;;;;;5013568;28;20072;-71
2022/09/05 04:24:10;;;;;;;;;;;18.90;99.60;;;;;;5032053;28;20404;-71
2022/09/05 04:27:00;;;;;;;5.53;3.17;;;18.80;99.50;;;;;;4971741;28;20421;-71
2022/09/05 04:29:34;;;;;;;4.78;3.30;;;18.80;99.60;;;;;;5032861;28;20501;-71
2022/09/05 04:32:26;;;;;;;4.35;2.90;;;18.80;99.60;;;;;;5035141;28;20029;-71
2022/09/05 04:35:05;;;;;;;7.57;3.10;;;18.80;99.70;;;;;;5035333;28;20053;-71
2022/09/05 04:37:43;;;;;;;5.00;3.38;;;18.80;99.70;;;;;;5035299;28;20052;-71
2022/09/05 04:40:32;;;;;;;6.95;3.40;;;18.80;99.80;;;;;;5035047;28;20021;-72
2022/09/05 04:43:17;;;;;;;7.15;3.50;;;18.80;99.70;;;;;;5025400;28;20497;-71
2022/09/05 04:45:54;;;;;;;7.70;3.47;;;18.80;99.70;;;;;;5034921;28;20155;-71
2022/09/05 04:48:27;;;;;;;8.93;3.78;;;18.80;99.70;;;;;;5017279;28;20120;-71
2022/09/05 04:51:45;;;;;;;9.10;4.00;;;18.80;99.60;;;;;;5034942;28;20069;-71
2022/09/05 04:54:35;;;;;;;8.63;3.30;;;18.80;99.60;;;;;;4954745;29;20440;-71
2022/09/05 04:57:07;;;;;;;7.90;3.55;;;18.80;99.70;;;;;;5031229;28;20033;-71
2022/09/05 04:59:49;;;;;;;5.15;3.10;;;18.80;99.60;;;;;;5034936;28;20454;-71
2022/09/05 05:02:30;;;;;;;6.50;3.40;;;18.80;99.60;;;;;;5035208;28;20040;-71
2022/09/05 05:05:02;;;;;;;6.78;3.50;;;18.80;99.60;;;;;;5034928;28;20042;-71
2022/09/05 05:07:50;;;;;;;6.60;3.42;;;18.80;99.60;;;;;;5034731;28;20033;-71
2022/09/05 05:10:28;;;;;;;4.85;3.10;;;18.80;99.70;;;;;;5016761;28;20056;-71
2022/09/05 05:13:22;;;;;;;6.10;3.58;;;18.80;99.80;;;;;;5034312;28;20076;-71
2022/09/05 05:15:54;;;;;;;6.40;3.35;;;18.80;99.80;;;;;;5034112;28;20032;-71
2022/09/05 05:18:26;;;;;;;6.47;3.53;;;18.80;99.80;;;;;;5034401;28;20108;-71
2022/09/05 05:20:58;;;;;;;11.70;3.97;;;18.80;99.80;;;;;;5034188;28;20029;-71
2022/09/05 05:23:40;;;;;;;6.40;3.72;;;18.70;99.80;;;;;;5034715;28;20440;-71
2022/09/05 05:26:19;;;;;;;7.18;3.80;;;18.70;99.90;;;;;;5034465;28;20030;-71
2022/09/05 05:28:53;;;;;;;5.75;3.78;;;18.70;99.80;;;;;;5034634;28;20053;-71
2022/09/05 05:31:25;;;;;;;7.05;3.38;;;18.80;99.90;;;;;;5034416;28;20025;-71
2022/09/05 05:33:52;;;;;;;6.07;4.00;;;18.80;99.90;;;;;;5034582;28;20036;-71
2022/09/05 05:36:35;;;;;;;9.13;3.80;;;18.80;99.90;;;;;;5016521;28;20107;-72
2022/09/05 05:39:05;;;;;;;6.97;4.10;;;18.80;99.90;;;;;;5015637;28;20060;-71
2022/09/05 05:41:48;;;;;;;8.30;4.00;;;18.80;99.90;;;;;;5033852;28;20025;-71
2022/09/05 05:44:21;;;;;;;8.95;4.43;;;18.80;99.80;;;;;;5034329;28;20422;-71
2022/09/05 05:47:16;;;;;;;8.88;3.63;;;18.90;99.80;;;;;;5034070;28;20033;-71
2022/09/05 05:50:06;;;;;;;5.90;3.55;;;18.90;99.70;;;;;;5031292;28;20037;-71
2022/09/05 05:53:11;;;;;;;18.70;4.25;;;18.90;99.70;;;;;;5033994;28;20033;-70
2022/09/05 05:56:00;;;;;;;35.08;6.85;;;18.90;99.80;;;;;;4976168;28;20029;-70
2022/09/05 05:58:37;;;;;;;89.30;9.93;;;19.00;99.90;;;;;;5033612;28;20479;-70
2022/09/05 06:01:25;;;;;;;42.55;6.70;;;19.00;99.80;;;;;;5033517;28;20479;-70
2022/09/05 06:04:09;;;;;;;28.00;5.50;;;19.00;99.70;;;;;;5015672;28;20502;-70
2022/09/05 06:06:56;;;;;;;13.35;4.85;;;19.10;99.70;;;;;;5033484;28;20034;-70
2022/09/05 06:09:44;;;;;;;12.48;4.43;;;19.10;99.70;;;;;;5033345;28;20040;-70
2022/09/05 06:12:28;;;;;;;11.27;4.75;;;19.10;99.70;;;;;;5033287;28;20038;-70
2022/09/05 06:15:58;;;;;;;10.15;4.50;;;19.20;99.60;;;;;;5015929;28;20079;-70
2022/09/05 06:18:39;;;;;;;7.93;4.05;;;19.20;99.50;;;;;;4952992;29;20038;-70
2022/09/05 06:21:23;;;;;;;8.27;3.80;;;19.30;99.40;;;;;;5024600;28;20414;-70
2022/09/05 06:23:52;;;;;;;7.50;3.30;;;19.40;99.00;;;;;;5032777;28;20036;-71
2022/09/05 06:26:51;;;;;;;5.15;3.38;;;19.50;98.80;;;;;;5014694;28;20040;-71
2022/09/05 06:29:16;;;;;;;;;;;19.60;98.40;;;;;;5032835;28;20033;-70
2022/09/05 06:32:01;;;;;;;6.32;2.97;;;19.70;98.20;;;;;;5014823;28;19913;-70
2022/09/05 06:34:45;;;;;;;4.38;2.85;;;19.80;97.90;;;;;;4998476;28;20037;-70
2022/09/05 06:37:35;;;;;;;6.18;2.97;;;19.90;97.80;;;;;;5032492;28;20116;-70
2022/09/05 06:40:34;;;;;;;6.63;3.15;;;20.00;97.70;;;;;;5032040;28;20485;-70
2022/09/05 06:43:11;;;;;;;5.10;2.92;;;20.00;97.60;;;;;;5032189;28;20029;-70
2022/09/05 06:45:59;;;;;;;8.18;3.25;;;20.10;97.60;;;;;;5032242;28;20033;-70
2022/09/05 06:48:27;;;;;;;6.43;3.13;;;20.10;97.60;;;;;;5032240;28;20504;-71
2022/09/05 06:50:59;;;;;;;6.15;3.67;;;20.10;97.60;;;;;;5032100;28;20337;-70
2022/09/05 06:53:56;;;;;;;8.35;2.97;;;20.20;97.60;;;;;;5032037;28;20265;-70
2022/09/05 06:56:51;;;;;;;9.35;3.00;;;20.20;97.40;;;;;;5032062;28;20036;-71
2022/09/05 06:59:41;;;;;;;4.07;2.40;;;20.20;97.30;;;;;;5031824;28;20025;-70
2022/09/05 07:02:20;;;;;;;3.13;2.17;;;20.20;97.10;;;;;;5013571;28;20029;-70
2022/09/05 07:05:18;;;;;;;4.57;2.20;;;20.30;97.00;;;;;;5031763;28;20033;-75
2022/09/05 07:07:51;;;;;;;4.22;1.48;;;20.40;96.90;;;;;;5030648;28;20029;-70
2022/09/05 07:10:32;;;;;;;6.43;2.20;;;20.60;97.20;;;;;;5013039;28;20044;-75
2022/09/05 07:13:36;;;;;;;7.22;2.88;;;20.80;96.40;;;;;;5031029;28;20037;-76
2022/09/05 07:16:20;;;;;;;7.32;2.92;;;20.90;95.70;;;;;;4987177;28;20041;-74
2022/09/05 07:19:16;;;;;;;6.80;3.08;;;21.10;95.20;;;;;;5012481;28;20022;-73
2022/09/05 07:22:11;;;;;;;6.00;2.50;;;21.20;95.00;;;;;;5012117;28;20044;-73
2022/09/05 07:24:42;;;;;;;7.43;2.80;;;21.30;94.80;;;;;;5030099;28;20072;-74
2022/09/05 07:27:10;;;;;;;5.72;2.67;;;21.30;94.70;;;;;;5030200;28;20088;-71
2022/09/05 07:29:40;;;;;;;;;;;21.30;94.50;;;;;;5030898;28;20033;-72
2022/09/05 07:32:09;;;;;;;3.25;2.20;;;21.30;94.30;;;;;;5029996;28;19916;-71
2022/09/05 07:34:37;;;;;;;3.75;2.10;;;21.30;94.40;;;;;;5012501;28;20033;-71
2022/09/05 07:37:15;;;;;;;4.22;2.38;;;21.20;94.50;;;;;;5029951;28;20029;-71
2022/09/05 07:39:57;;;;;;;5.88;2.15;;;21.20;94.50;;;;;;5012496;28;20203;-71
2022/09/05 07:42:40;;;;;;;5.30;2.17;;;21.20;94.40;;;;;;5030163;28;20091;-72
2022/09/05 07:45:12;;;;;;;4.32;2.38;;;21.20;94.10;;;;;;5030067;28;20047;-71
2022/09/05 07:47:50;;;;;;;6.30;2.00;;;21.30;94.10;;;;;;5030855;28;20117;-72
2022/09/05 07:50:17;;;;;;;5.60;2.45;;;21.30;93.90;;;;;;5030897;28;20083;-71
2022/09/05 07:52:44;;;;;;;3.00;1.90;;;21.30;93.70;;;;;;5013596;28;20037;-71
2022/09/05 07:55:24;;;;;;;4.32;2.08;;;21.40;93.50;;;;;;5030940;28;20136;-72
2022/09/05 07:57:53;;;;;;;4.97;2.00;;;21.40;93.50;;;;;;5030840;28;20024;-71
2022/09/05 08:00:22;;;;;;;4.10;2.17;;;21.40;93.60;;;;;;5030827;28;20021;-71
2022/09/05 08:02:49;;;;;;;4.25;2.00;;;21.40;93.80;;;;;;5012799;28;20036;-72
2022/09/05 08:05:21;;;;;;;3.33;2.03;;;21.40;93.80;;;;;;5030853;28;20478;-72
2022/09/05 08:08:01;;;;;;;5.20;2.03;;;21.40;93.90;;;;;;5030623;28;20116;-71
2022/09/05 08:10:31;;;;;;;3.15;2.00;;;21.40;93.90;;;;;;5030509;28;20045;-71
2022/09/05 08:13:11;;;;;;;3.40;1.92;;;21.30;93.90;;;;;;5013057;28;20034;-71
2022/09/05 08:15:44;;;;;;;4.75;2.20;;;21.30;94.10;;;;;;5030922;28;20390;-71
2022/09/05 08:18:27;;;;;;;3.42;2.05;;;21.40;93.60;;;;;;5013064;28;20052;-72
2022/09/05 08:21:14;;;;;;;3.13;1.90;;;21.40;93.40;;;;;;5051576;22;20057;-81
2022/09/05 08:24:19;;;;;;;3.30;1.70;;;21.40;93.40;;;;;;4996677;28;20037;-81
2022/09/05 08:27:08;;;;;;;2.63;1.90;;;21.50;93.00;;;;;;4990746;28;20030;-81
2022/09/05 08:29:42;;;;;;;3.33;1.98;;;21.60;93.00;;;;;;5030149;28;20151;-81
2022/09/05 08:32:15;;;;;;;3.92;2.20;;;21.60;92.90;;;;;;5030071;28;20088;-82
2022/09/05 08:37:46;;;;;;;4.43;1.95;;;21.80;92.40;;;;;;5048709;28;20075;-68
2022/09/05 08:40:27;;;;;;;3.63;1.98;;;21.80;92.20;;;;;;5050554;28;20039;-71
2022/09/05 08:43:26;;;;;;;3.20;1.95;;;21.90;92.00;;;;;;5050591;28;20025;-75
2022/09/05 08:46:04;;;;;;;;;;;21.90;91.80;;;;;;5048886;28;20037;-71
2022/09/05 08:49:11;;;;;;;3.58;2.10;;;22.00;91.70;;;;;;5049210;28;19919;-70
2022/09/05 08:51:42;;;;;;;3.45;1.73;;;22.00;91.80;;;;;;4988606;28;20034;-70
2022/09/05 08:54:35;;;;;;;4.10;1.90;;;21.90;91.80;;;;;;5039442;28;20045;-70
2022/09/05 08:57:20;;;;;;;2.83;1.80;;;22.00;91.30;;;;;;5050339;28;20061;-69
2022/09/05 08:59:54;;;;;;;2.55;1.75;;;22.10;91.20;;;;;;5050349;28;20033;-70
2022/09/05 09:02:35;;;;;;;3.15;1.83;;;22.10;91.20;;;;;;5050570;28;20078;-69
2022/09/05 09:05:08;;;;;;;3.05;1.70;;;22.20;91.00;;;;;;5050601;28;20435;-69
2022/09/05 09:07:37;;;;;;;4.93;1.85;;;22.20;90.80;;;;;;5050170;28;20032;-69
2022/09/05 09:10:03;;;;;;;4.82;1.63;;;22.30;90.70;;;;;;5050142;28;20111;-70
2022/09/05 09:13:00;;;;;;;2.60;1.70;;;22.40;90.60;;;;;;5050266;28;20430;-69
2022/09/05 09:15:41;;;;;;;4.43;1.67;;;22.40;90.40;;;;;;5054104;28;20054;-69
2022/09/05 09:18:18;;;;;;;2.28;1.58;;;22.50;90.70;;;;;;5053907;28;20108;-70
2022/09/05 09:20:54;;;;;;;4.72;1.80;;;22.50;89.90;;;;;;5053805;28;20477;-68
2022/09/05 09:23:35;;;;;;;3.28;1.85;;;22.60;89.30;;;;;;5052801;28;20028;-69
2022/09/05 09:26:21;;;;;;;4.35;1.80;;;22.60;88.40;;;;;;5052677;28;20035;-68
2022/09/05 09:28:59;;;;;;;5.78;1.92;;;22.70;87.30;;;;;;5051225;28;20057;-68
2022/09/05 09:31:43;;;;;;;;;;;22.70;87.50;;;;;;5043767;28;20048;-68
2022/09/05 09:34:25;;;;;;;4.38;2.25;;;22.80;87.00;;;;;;5051631;28;19988;-69
2022/09/05 09:37:27;;;;;;;4.60;1.90;;;22.90;86.50;;;;;;5052261;28;20615;-69
2022/09/05 09:40:09;;;;;;;5.03;1.65;;;22.90;87.70;;;;;;5052658;28;20025;-69
2022/09/05 09:42:59;;;;;;;3.00;1.75;;;22.80;89.70;;;;;;5051881;28;20107;-69
2022/09/05 09:45:57;;;;;;;4.50;1.65;;;22.80;87.10;;;;;;5052512;28;20021;-68
2022/09/05 09:48:46;;;;;;;3.17;1.70;;;22.70;87.50;;;;;;5045563;28;20033;-69
2022/09/05 09:51:36;;;;;;;3.10;1.90;;;22.80;85.50;;;;;;5052048;28;20125;-69
2022/09/05 09:54:36;;;;;;;2.72;1.77;;;22.80;87.40;;;;;;5051604;28;20095;-69
2022/09/05 09:57:54;;;;;;;2.65;1.75;;;22.70;87.90;;;;;;5051957;28;20029;-68
2022/09/05 10:00:22;;;;;;;4.93;1.95;;;22.80;85.40;;;;;;5051958;28;20027;-68
2022/09/05 10:03:07;;;;;;;3.78;1.90;;;22.90;82.60;;;;;;5051503;28;20540;-70
2022/09/05 10:05:45;;;;;;;3.05;1.83;;;23.00;82.80;;;;;;5053085;28;20111;-72
2022/09/05 10:08:23;;;;;;;2.50;1.63;;;23.10;83.00;;;;;;5051826;28;20059;-69
2022/09/05 10:11:10;;;;;;;2.47;1.90;;;23.10;83.10;;;;;;5052714;28;20470;-69
2022/09/05 10:13:48;;;;;;;2.65;1.70;;;23.00;83.50;;;;;;5052764;28;20473;-69
2022/09/05 10:16:14;;;;;;;3.20;1.85;;;23.00;85.30;;;;;;5052897;28;20029;-69
2022/09/05 10:19:16;;;;;;;5.43;1.90;;;23.00;85.70;;;;;;5052570;28;20510;-69
2022/09/05 10:21:47;;;;;;;6.78;2.40;;;22.90;84.20;;;;;;5030905;28;20048;-68
2022/09/05 10:24:31;;;;;;;5.30;2.13;;;23.00;82.90;;;;;;5050914;28;20037;-69
2022/09/05 10:27:18;;;;;;;5.43;2.67;;;23.10;82.60;;;;;;5052409;28;20021;-68
2022/09/05 10:30:06;;;;;;;7.65;2.53;;;23.10;86.20;;;;;;5052616;28;20037;-70
2022/09/05 10:32:40;;;;;;;4.90;2.50;;;23.10;90.40;;;;;;5052078;28;20039;-69
2022/09/05 10:35:22;;;;;;;5.55;2.50;;;23.20;87.00;;;;;;5050869;28;20033;-68
2022/09/05 10:38:01;;;;;;;4.50;2.30;;;23.10;87.50;;;;;;5052401;28;20393;-69
2022/09/05 10:40:32;;;;;;;4.78;2.35;;;23.20;84.80;;;;;;5050777;28;20025;-69
2022/09/05 10:43:08;;;;;;;5.88;2.20;;;23.20;85.80;;;;;;5052258;28;20055;-68
2022/09/05 10:46:00;;;;;;;4.43;2.15;;;23.10;89.50;;;;;;5052309;28;20029;-68
2022/09/05 10:48:39;;;;;;;4.22;1.67;;;23.20;84.20;;;;;;5052133;28;20065;-68
2022/09/05 10:51:14;;;;;;;4.47;1.83;;;23.40;80.10;;;;;;5050689;28;20132;-68
2022/09/05 10:53:48;;;;;;;3.15;1.77;;;23.50;77.40;;;;;;5052035;28;20041;-68
2022/09/05 10:56:24;;;;;;;4.20;1.80;;;23.70;77.60;;;;;;5067323;28;20482;-68
2022/09/05 10:58:59;;;;;;;2.97;1.63;;;23.70;77.80;;;;;;5051880;28;20519;-68
2022/09/05 11:01:40;;;;;;;4.70;1.70;;;23.80;75.60;;;;;;5051946;28;20116;-69
2022/09/05 11:04:15;;;;;;;3.47;2.00;;;23.90;76.30;;;;;;5044370;28;20036;-69
2022/09/05 11:06:41;;;;;;;4.93;1.98;;;23.90;75.50;;;;;;5030547;28;20481;-70
2022/09/05 11:09:22;;;;;;;3.45;2.10;;;24.00;76.80;;;;;;5031902;28;20026;-69
2022/09/05 11:12:27;;;;;;;2.78;1.80;;;24.10;76.40;;;;;;5031502;28;20029;-69
2022/09/05 11:14:57;;;;;;;3.53;1.67;;;24.20;77.10;;;;;;5031858;28;20109;-69
2022/09/05 11:17:37;;;;;;;5.60;1.83;;;24.30;75.70;;;;;;5031414;28;20029;-69
2022/09/05 11:20:03;;;;;;;2.83;1.70;;;24.40;77.30;;;;;;5031246;28;20021;-72
2022/09/05 11:22:37;;;;;;;4.07;1.80;;;24.30;77.40;;;;;;5031496;28;20078;-70
2022/09/05 11:25:16;;;;;;;3.63;1.70;;;24.30;77.40;;;;;;5031548;28;20032;-70
2022/09/05 11:27:48;;;;;;;3.30;2.00;;;24.30;79.50;;;;;;5031337;28;20040;-70
2022/09/05 11:30:29;;;;;;;3.05;1.60;;;24.20;77.80;;;;;;5031190;28;20179;-69
2022/09/05 11:33:33;;;;;;;5.18;1.98;;;24.20;76.50;;;;;;5031303;28;20474;-68
2022/09/05 11:36:09;;;;;;;3.38;1.70;;;24.20;75.20;;;;;;5033115;28;20136;-71
2022/09/05 11:38:58;;;;;;;3.58;1.65;;;24.30;74.90;;;;;;5032409;28;20025;-69
2022/09/05 11:41:42;;;;;;;4.32;1.75;;;24.30;74.90;;;;;;5032097;28;20079;-68
2022/09/05 11:44:23;;;;;;;4.38;2.00;;;24.10;78.80;;;;;;5031365;28;20494;-69
2022/09/05 11:47:10;;;;;;;3.92;1.70;;;24.00;78.70;;;;;;5031315;28;20560;-69
2022/09/05 11:50:00;;;;;;;2.17;1.70;;;24.00;76.50;;;;;;5029811;28;20125;-69
2022/09/05 11:52:56;;;;;;;4.13;1.80;;;24.20;75.20;;;;;;5030944;28;20824;-69
2022/09/05 11:55:36;;;;;;;2.83;1.80;;;24.30;75.60;;;;;;5031931;28;20029;-70
2022/09/05 11:58:20;;;;;;;2.25;1.40;;;24.20;79.40;;;;;;5042523;28;20181;-70
2022/09/05 12:01:14;;;;;;;2.80;1.60;;;24.20;76.60;;;;;;5049575;28;20025;-71
2022/09/05 12:03:51;;;;;;;3.45;1.73;;;24.10;76.30;;;;;;5049685;28;20385;-70
2022/09/05 12:06:30;;;;;;;4.20;1.90;;;24.10;76.70;;;;;;5048987;28;20078;-70
2022/09/05 12:09:23;;;;;;;4.35;1.88;;;24.20;75.00;;;;;;5050057;28;20374;-70
2022/09/05 12:12:22;;;;;;;4.53;1.80;;;24.30;74.70;;;;;;5048287;28;20037;-70
2022/09/05 12:15:10;;;;;;;3.40;2.00;;;24.40;73.90;;;;;;5049839;28;20115;-70
2022/09/05 12:17:39;;;;;;;2.30;1.70;;;24.50;72.90;;;;;;5049783;28;20025;-70
2022/09/05 12:20:13;;;;;;;2.70;1.63;;;24.70;72.60;;;;;;5049453;28;20117;-70
2022/09/05 12:23:01;;;;;;;5.22;1.63;;;24.70;72.70;;;;;;5049803;28;20063;-70
2022/09/05 12:25:46;;;;;;;2.88;1.67;;;24.60;73.80;;;;;;5041209;28;20098;-70
2022/09/05 12:28:16;;;;;;;4.47;1.60;;;24.50;74.10;;;;;;5049553;28;20674;-70
2022/09/05 12:30:44;;;;;;;3.53;1.67;;;24.60;73.50;;;;;;5049382;28;20484;-70
2022/09/05 12:33:22;;;;;;;3.45;1.73;;;24.60;74.00;;;;;;5049595;28;20029;-70
2022/09/05 12:36:02;;;;;;;2.45;1.70;;;24.70;73.50;;;;;;5048798;28;20075;-70
2022/09/05 12:38:59;;;;;;;5.97;1.52;;;24.70;73.30;;;;;;5049690;28;20098;-70
2022/09/05 12:41:36;;;;;;;2.58;1.45;;;24.80;72.70;;;;;;5049358;28;20457;-70
2022/09/05 12:44:01;;;;;;;2.10;1.58;;;25.00;71.20;;;;;;5049699;28;20107;-70
2022/09/05 12:46:56;;;;;;;2.03;1.40;;;25.00;73.30;;;;;;5048422;28;20044;-70
2022/09/05 12:49:57;;;;;;;2.78;1.70;;;24.90;74.50;;;;;;5053408;28;20025;-70
2022/09/05 12:52:45;;;;;;;4.00;1.60;;;24.70;75.40;;;;;;5049486;28;20409;-70
2022/09/05 12:55:26;;;;;;;4.15;1.80;;;24.80;72.60;;;;;;5052631;28;20186;-70
2022/09/05 12:57:59;;;;;;;4.93;1.50;;;24.80;72.80;;;;;;5052657;28;20029;-70
2022/09/05 13:00:26;;;;;;;2.53;1.80;;;24.90;72.10;;;;;;5051781;28;20108;-71
2022/09/05 13:02:59;;;;;;;2.47;1.60;;;25.00;71.20;;;;;;5053035;28;20032;-70
2022/09/05 13:05:44;;;;;;;3.58;1.60;;;25.00;72.80;;;;;;5052692;28;20542;-70
2022/09/05 13:08:14;;;;;;;2.70;1.83;;;24.80;74.20;;;;;;5045364;28;20040;-70
2022/09/05 13:10:42;;;;;;;2.97;2.05;;;24.80;74.40;;;;;;5052677;28;20033;-70
2022/09/05 13:13:30;;;;;;;2.65;1.85;;;24.70;73.80;;;;;;5052847;28;20182;-70
2022/09/05 13:15:58;;;;;;;4.13;1.77;;;24.70;72.50;;;;;;5052024;28;20108;-70
2022/09/05 13:18:30;;;;;;;2.38;1.55;;;24.80;72.30;;;;;;5051666;28;20485;-70
2022/09/05 13:21:23;;;;;;;3.30;1.80;;;24.80;72.60;;;;;;5052450;28;20033;-70
2022/09/05 13:24:10;;;;;;;3.88;2.17;;;24.90;72.20;;;;;;5047830;28;20048;-70
2022/09/05 13:26:55;;;;;;;2.93;1.70;;;25.00;71.10;;;;;;5057503;28;20037;-70
2022/09/05 13:29:27;;;;;;;3.25;1.90;;;25.10;71.00;;;;;;5050860;28;20099;-70
2022/09/05 13:32:04;;;;;;;3.50;1.60;;;25.00;71.10;;;;;;5052424;28;20079;-70
2022/09/05 13:34:35;;;;;;;2.42;1.60;;;25.00;72.00;;;;;;5052703;28;20039;-70
2022/09/05 13:37:28;;;;;;;1.67;1.50;;;25.00;71.70;;;;;;5051554;28;20036;-70
2022/09/05 13:40:02;;;;;;;2.55;1.50;;;24.90;71.10;;;;;;5052093;28;20029;-70
2022/09/05 13:42:37;;;;;;;2.40;1.60;;;24.80;74.10;;;;;;5052396;28;20048;-70
2022/09/05 13:45:07;;;;;;;2.30;1.42;;;24.80;71.70;;;;;;5050460;28;20464;-70
2022/09/05 13:47:36;;;;;;;3.67;1.67;;;24.90;69.90;;;;;;5052077;28;20108;-70
2022/09/05 13:50:25;;;;;;;2.75;1.52;;;25.00;68.90;;;;;;5051968;28;20033;-70
2022/09/05 13:53:25;;;;;;;2.35;1.42;;;25.10;68.50;;;;;;5052084;28;20059;-70
2022/09/05 13:56:21;;;;;;;2.85;1.40;;;25.00;71.60;;;;;;5047546;28;20029;-70
2022/09/05 13:58:52;;;;;;;3.08;1.70;;;24.90;70.50;;;;;;5051437;28;20576;-70
2022/09/05 14:01:21;;;;;;;2.28;1.58;;;24.90;71.20;;;;;;5052380;28;20466;-69
2022/09/05 14:04:17;;;;;;;5.78;2.20;;;24.80;73.00;;;;;;5051879;28;20118;-73
2022/09/05 14:07:08;;;;;;;9.15;2.97;;;24.80;85.10;;;;;;5050122;28;20040;-72
2022/09/05 14:09:52;;;;;;;6.68;2.60;;;24.50;91.30;;;;;;5050549;28;20037;-74
2022/09/05 14:12:28;;;;;;;6.10;2.40;;;24.20;92.50;;;;;;5045031;28;20408;-69